createdAt,value
2023-05-19T00:00:31.511Z,1.97
2023-05-19T00:01:33.173Z,1.97
2023-05-19T00:02:35.099Z,1.50
2023-05-19T00:03:40.487Z,1.77
2023-05-19T00:04:41.955Z,2.17
2023-05-19T00:05:46.148Z,1.93
2023-05-19T00:06:50.828Z,1.73
2023-05-19T00:07:52.638Z,1.70
2023-05-19T00:08:57.076Z,1.70
2023-05-19T00:09:58.542Z,1.90
2023-05-19T00:11:00.304Z,1.60
2023-05-19T00:12:01.995Z,1.70
2023-05-19T00:13:03.603Z,1.70
2023-05-19T00:14:09.379Z,1.83
2023-05-19T00:15:11.215Z,2.10
2023-05-19T00:16:12.973Z,1.60
2023-05-19T00:17:16.796Z,2.10
2023-05-19T00:18:18.154Z,1.87
2023-05-19T00:19:19.578Z,1.73
2023-05-19T00:20:21.668Z,1.90
2023-05-19T00:21:23.017Z,1.90
2023-05-19T00:22:24.331Z,2.13
2023-05-19T00:23:25.885Z,1.87
2023-05-19T00:24:27.316Z,1.93
2023-05-19T00:25:28.642Z,2.10
2023-05-19T00:26:30.047Z,1.97
2023-05-19T00:27:38.684Z,1.87
2023-05-19T00:28:40.087Z,2.07
2023-05-19T00:29:41.509Z,2.03
2023-05-19T00:30:42.851Z,2.20
2023-05-19T00:31:44.519Z,1.87
2023-05-19T00:32:46.016Z,1.93
2023-05-19T00:33:47.747Z,1.97
2023-05-19T00:34:49.481Z,2.10
2023-05-19T00:35:51.690Z,2.33
2023-05-19T00:36:53.064Z,2.50
2023-05-19T00:37:54.436Z,2.20
2023-05-19T00:38:55.898Z,2.13
2023-05-19T00:39:58.367Z,2.13
2023-05-19T00:41:00.460Z,2.17
2023-05-19T00:42:02.731Z,1.90
2023-05-19T00:43:05.582Z,2.17
2023-05-19T00:44:06.977Z,2.67
2023-05-19T00:45:08.505Z,2.33
2023-05-19T00:46:10.897Z,2.20
2023-05-19T00:47:12.343Z,1.87
2023-05-19T00:48:14.341Z,1.80
2023-05-19T00:49:15.730Z,2.00
2023-05-19T00:50:17.108Z,1.90
2023-05-19T00:51:19.007Z,1.80
2023-05-19T00:52:20.554Z,1.60
2023-05-19T00:53:23.073Z,1.87
2023-05-19T00:54:24.430Z,1.63
2023-05-19T00:55:30.933Z,1.90
2023-05-19T00:56:32.449Z,1.83
2023-05-19T00:57:34.897Z,1.83
2023-05-19T00:58:36.661Z,1.70
2023-05-19T00:59:38.287Z,1.80
2023-05-19T01:00:40.156Z,1.90
2023-05-19T01:01:41.584Z,1.83
2023-05-19T01:02:43.375Z,2.10
2023-05-19T01:03:45.045Z,1.80
2023-05-19T01:04:47.009Z,2.10
2023-05-19T01:05:49.750Z,1.57
2023-05-19T01:06:56.992Z,1.77
2023-05-19T01:07:58.511Z,1.73
2023-05-19T01:08:59.895Z,1.40
2023-05-19T01:10:01.330Z,1.50
2023-05-19T01:11:03.304Z,1.93
2023-05-19T01:12:04.800Z,1.93
2023-05-19T01:13:06.445Z,1.50
2023-05-19T01:14:07.875Z,1.60
2023-05-19T01:15:09.951Z,1.97
2023-05-19T01:16:22.284Z,1.83
2023-05-19T01:17:45.771Z,2.00
2023-05-19T01:19:14.239Z,1.67
2023-05-19T01:20:21.970Z,1.67
2023-05-19T01:21:26.622Z,1.60
2023-05-19T01:22:35.442Z,1.90
2023-05-19T01:23:49.263Z,1.60
2023-05-19T01:25:06.958Z,1.93
2023-05-19T01:26:19.290Z,1.60
2023-05-19T01:27:29.770Z,2.00
2023-05-19T01:28:37.000Z,2.20
2023-05-19T01:30:04.730Z,1.83
2023-05-19T01:31:07.370Z,1.80
2023-05-19T01:32:09.798Z,1.53
2023-05-19T01:33:14.174Z,1.53
2023-05-19T01:34:16.945Z,2.10
2023-05-19T01:35:18.415Z,1.80
2023-05-19T01:36:20.423Z,1.73
2023-05-19T01:37:22.646Z,1.90
2023-05-19T01:38:24.824Z,1.80
2023-05-19T01:39:26.325Z,1.80
2023-05-19T01:40:28.195Z,1.73
2023-05-19T01:41:30.541Z,1.80
2023-05-19T01:42:37.194Z,1.97
2023-05-19T01:43:40.260Z,1.90
2023-05-19T01:44:42.152Z,1.83
2023-05-19T01:45:43.961Z,1.70
2023-05-19T01:46:45.415Z,1.90
2023-05-19T01:47:48.511Z,1.87
2023-05-19T01:48:50.116Z,1.80
2023-05-19T01:49:54.079Z,1.83
2023-05-19T01:50:57.247Z,1.50
2023-05-19T01:51:58.725Z,1.80
2023-05-19T01:53:00.785Z,1.90
2023-05-19T01:54:02.161Z,1.80
2023-05-19T01:55:03.767Z,1.60
2023-05-19T01:56:05.676Z,2.00
2023-05-19T01:57:15.780Z,1.60
2023-05-19T01:58:19.730Z,1.70
2023-05-19T01:59:30.733Z,1.50
2023-05-19T02:00:32.330Z,1.90
2023-05-19T02:01:38.208Z,2.03
2023-05-19T02:02:49.409Z,1.83
2023-05-19T02:03:54.547Z,1.50
2023-05-19T02:04:59.804Z,1.90
2023-05-19T02:06:15.771Z,1.87
2023-05-19T02:07:30.853Z,1.83
2023-05-19T02:08:38.745Z,1.60
2023-05-19T02:09:42.487Z,1.80
2023-05-19T02:10:45.801Z,1.80
2023-05-19T02:12:01.092Z,2.03
2023-05-19T02:13:04.502Z,1.97
2023-05-19T02:14:08.633Z,1.70
2023-05-19T02:15:16.441Z,1.83
2023-05-19T02:16:18.415Z,1.60
2023-05-19T02:17:20.459Z,1.50
2023-05-19T02:18:22.295Z,1.87
2023-05-19T02:19:27.412Z,1.80
2023-05-19T02:20:30.944Z,1.90
2023-05-19T02:21:32.520Z,1.60
2023-05-19T02:22:33.943Z,1.50
2023-05-19T02:23:35.395Z,2.00
2023-05-19T02:24:37.594Z,2.10
2023-05-19T02:25:38.951Z,1.60
2023-05-19T02:26:40.670Z,1.50
2023-05-19T02:27:42.149Z,1.80
2023-05-19T02:28:43.519Z,1.83
2023-05-19T02:29:44.833Z,1.60
2023-05-19T02:30:46.184Z,1.77
2023-05-19T02:31:47.677Z,1.90
2023-05-19T02:32:49.180Z,1.50
2023-05-19T02:33:50.674Z,2.10
2023-05-19T02:34:53.209Z,1.50
2023-05-19T02:35:54.615Z,1.83
2023-05-19T02:36:56.463Z,1.80
2023-05-19T02:37:58.779Z,1.67
2023-05-19T02:39:01.681Z,1.40
2023-05-19T02:40:04.147Z,1.70
2023-05-19T02:41:05.611Z,1.63
2023-05-19T02:42:07.019Z,1.90
2023-05-19T02:43:08.414Z,1.90
2023-05-19T02:44:09.774Z,1.80
2023-05-19T02:45:11.719Z,1.80
2023-05-19T02:46:15.617Z,2.13
2023-05-19T02:47:17.019Z,1.90
2023-05-19T02:48:19.144Z,2.73
2023-05-19T02:49:21.382Z,3.40
2023-05-19T02:50:22.762Z,2.40
2023-05-19T02:51:24.161Z,2.37
2023-05-19T02:52:25.546Z,1.93
2023-05-19T02:53:26.899Z,2.07
2023-05-19T02:54:28.768Z,2.17
2023-05-19T02:55:30.161Z,2.30
2023-05-19T02:56:31.508Z,1.97
2023-05-19T02:57:33.090Z,2.10
2023-05-19T02:58:34.475Z,2.50
2023-05-19T02:59:36.611Z,2.00
2023-05-19T03:00:38.028Z,2.00
2023-05-19T03:01:40.387Z,2.13
2023-05-19T03:02:43.973Z,2.00
2023-05-19T03:03:45.720Z,2.00
2023-05-19T03:04:47.155Z,2.20
2023-05-19T03:05:48.523Z,1.80
2023-05-19T03:06:50.112Z,1.90
2023-05-19T03:07:51.590Z,1.93
2023-05-19T03:08:53.013Z,2.10
2023-05-19T03:09:54.402Z,2.40
2023-05-19T03:10:55.730Z,1.97
2023-05-19T03:11:57.233Z,2.20
2023-05-19T03:12:58.762Z,2.43
2023-05-19T03:14:00.284Z,2.37
2023-05-19T03:15:01.707Z,2.07
2023-05-19T03:16:03.458Z,1.73
2023-05-19T03:17:08.105Z,2.23
2023-05-19T03:18:09.696Z,2.53
2023-05-19T03:19:11.246Z,2.30
2023-05-19T03:20:12.960Z,1.90
2023-05-19T03:21:14.374Z,2.10
2023-05-19T03:22:15.709Z,2.30
2023-05-19T03:23:17.038Z,2.03
2023-05-19T03:24:18.549Z,2.30
2023-05-19T03:25:19.988Z,2.30
2023-05-19T03:26:23.020Z,2.00
2023-05-19T03:27:24.427Z,2.53
2023-05-19T03:28:27.380Z,2.50
2023-05-19T03:29:28.732Z,2.50
2023-05-19T03:30:30.225Z,2.90
2023-05-19T03:31:57.884Z,2.50
2023-05-19T03:33:01.635Z,2.70
2023-05-19T03:34:03.469Z,3.10
2023-05-19T03:35:05.517Z,2.70
2023-05-19T03:36:07.104Z,3.07
2023-05-19T03:37:12.900Z,2.70
2023-05-19T03:38:14.958Z,3.90
2023-05-19T03:39:23.543Z,4.70
2023-05-19T03:40:25.768Z,4.90
2023-05-19T03:41:32.947Z,5.10
2023-05-19T03:42:35.284Z,4.70
2023-05-19T03:43:36.812Z,4.67
2023-05-19T03:44:40.283Z,4.60
2023-05-19T03:45:42.047Z,4.50
2023-05-19T03:47:12.602Z,4.17
2023-05-19T03:48:17.975Z,3.77
2023-05-19T03:49:41.073Z,2.80
2023-05-19T03:51:05.395Z,2.80
2023-05-19T03:52:06.741Z,2.80
2023-05-19T03:53:20.070Z,2.20
2023-05-19T03:54:22.474Z,2.63
2023-05-19T03:55:24.105Z,2.87
2023-05-19T03:56:27.749Z,3.17
2023-05-19T03:57:29.388Z,2.33
2023-05-19T03:58:31.164Z,2.70
2023-05-19T03:59:33.057Z,2.70
2023-05-19T04:00:34.724Z,2.60
2023-05-19T04:01:36.555Z,2.70
2023-05-19T04:02:38.043Z,2.47
2023-05-19T04:03:39.590Z,2.33
2023-05-19T04:04:41.391Z,2.67
2023-05-19T04:05:42.772Z,2.50
2023-05-19T04:06:44.168Z,2.60
2023-05-19T04:07:46.670Z,2.70
2023-05-19T04:08:48.022Z,2.70
2023-05-19T04:09:49.648Z,3.10
2023-05-19T04:10:51.018Z,3.00
2023-05-19T04:11:52.365Z,2.77
2023-05-19T04:12:53.732Z,2.83
2023-05-19T04:13:55.079Z,2.33
2023-05-19T04:14:56.416Z,2.20
2023-05-19T04:15:59.345Z,2.37
2023-05-19T04:17:00.954Z,2.10
2023-05-19T04:18:02.347Z,1.87
2023-05-19T04:19:03.991Z,1.93
2023-05-19T04:20:08.475Z,2.07
2023-05-19T04:21:09.857Z,2.10
2023-05-19T04:22:12.844Z,1.77
2023-05-19T04:23:14.223Z,1.60
2023-05-19T04:24:15.649Z,2.20
2023-05-19T04:25:17.104Z,1.63
2023-05-19T04:26:19.371Z,1.80
2023-05-19T04:27:21.919Z,1.80
2023-05-19T04:28:23.887Z,2.47
2023-05-19T04:29:25.268Z,2.73
2023-05-19T04:30:26.810Z,2.47
2023-05-19T04:31:28.570Z,2.63
2023-05-19T04:32:31.003Z,3.37
2023-05-19T04:33:33.952Z,3.23
2023-05-19T04:34:35.446Z,3.47
2023-05-19T04:35:38.192Z,3.30
2023-05-19T04:36:39.614Z,3.50
2023-05-19T04:37:41.354Z,3.70
2023-05-19T04:38:42.845Z,3.83
2023-05-19T04:39:46.286Z,3.77
2023-05-19T04:40:50.136Z,3.63
2023-05-19T04:41:51.629Z,4.00
2023-05-19T04:42:54.025Z,3.73
2023-05-19T04:43:57.435Z,3.80
2023-05-19T04:44:58.780Z,3.53
2023-05-19T04:46:06.153Z,3.77
2023-05-19T04:47:08.843Z,3.33
2023-05-19T04:48:10.436Z,3.57
2023-05-19T04:49:14.915Z,3.60
2023-05-19T04:50:16.830Z,3.13
2023-05-19T04:51:19.770Z,3.60
2023-05-19T04:52:22.505Z,2.93
2023-05-19T04:53:25.656Z,3.20
2023-05-19T04:54:27.037Z,3.07
2023-05-19T04:55:29.168Z,2.93
2023-05-19T04:56:30.793Z,3.20
2023-05-19T04:57:32.276Z,2.93
2023-05-19T04:58:34.086Z,3.27
2023-05-19T04:59:35.988Z,3.27
2023-05-19T05:00:37.727Z,2.93
2023-05-19T05:01:43.003Z,2.90
2023-05-19T05:02:47.245Z,2.90
2023-05-19T05:03:49.310Z,2.90
2023-05-19T05:04:50.758Z,2.60
2023-05-19T05:05:52.424Z,2.87
2023-05-19T05:06:54.142Z,2.60
2023-05-19T05:07:56.191Z,2.50
2023-05-19T05:08:59.907Z,2.57
2023-05-19T05:10:01.577Z,2.60
2023-05-19T05:11:03.358Z,2.93
2023-05-19T05:12:07.432Z,2.50
2023-05-19T05:13:11.706Z,2.83
2023-05-19T05:14:13.657Z,2.50
2023-05-19T05:15:16.642Z,2.70
2023-05-19T05:16:18.934Z,2.40
2023-05-19T05:17:20.686Z,2.30
2023-05-19T05:18:26.674Z,2.63
2023-05-19T05:19:29.087Z,2.70
2023-05-19T05:20:31.228Z,2.63
2023-05-19T05:21:33.204Z,2.43
2023-05-19T05:22:35.570Z,2.13
2023-05-19T05:23:38.068Z,2.40
2023-05-19T05:24:41.718Z,2.50
2023-05-19T05:25:43.965Z,2.60
2023-05-19T05:26:46.141Z,2.60
2023-05-19T05:27:48.386Z,2.50
2023-05-19T05:28:50.401Z,2.00
2023-05-19T05:29:52.530Z,2.33
2023-05-19T05:30:56.293Z,2.50
2023-05-19T05:31:58.178Z,2.70
2023-05-19T05:33:00.126Z,2.40
2023-05-19T05:34:06.660Z,2.33
2023-05-19T05:35:08.480Z,2.30
2023-05-19T05:36:10.168Z,2.60
2023-05-19T05:37:13.817Z,2.60
2023-05-19T05:38:16.595Z,2.50
2023-05-19T05:39:18.126Z,2.10
2023-05-19T05:40:20.277Z,2.40
2023-05-19T05:41:22.389Z,2.53
2023-05-19T05:42:27.676Z,2.20
2023-05-19T05:43:31.180Z,2.33
2023-05-19T05:44:35.867Z,2.40
2023-05-19T05:45:38.847Z,3.07
2023-05-19T05:46:42.350Z,2.87
2023-05-19T05:47:45.102Z,2.80
2023-05-19T05:48:47.099Z,2.50
2023-05-19T05:49:48.747Z,2.43
2023-05-19T05:50:51.963Z,2.40
2023-05-19T05:52:05.721Z,2.27
2023-05-19T05:53:16.353Z,2.60
2023-05-19T05:54:18.799Z,2.97
2023-05-19T05:55:20.942Z,2.50
2023-05-19T05:56:23.312Z,2.73
2023-05-19T05:57:30.462Z,2.47
2023-05-19T05:59:36.258Z,2.33
2023-05-19T06:00:38.020Z,2.40
2023-05-19T06:01:39.835Z,2.20
2023-05-19T06:02:46.434Z,2.33
2023-05-19T06:03:48.674Z,2.17
2023-05-19T06:04:54.724Z,2.43
2023-05-19T06:05:56.566Z,2.10
2023-05-19T06:07:01.126Z,2.50
2023-05-19T06:08:06.098Z,2.47
2023-05-19T06:09:07.487Z,2.20
2023-05-19T06:10:09.847Z,2.50
2023-05-19T06:11:12.382Z,2.10
2023-05-19T06:12:15.510Z,2.20
2023-05-19T06:13:23.948Z,2.20
2023-05-19T06:14:25.384Z,2.33
2023-05-19T06:16:01.700Z,2.60
2023-05-19T06:17:12.812Z,2.23
2023-05-19T06:18:14.856Z,2.30
2023-05-19T06:19:16.451Z,2.93
2023-05-19T06:20:18.673Z,2.40
2023-05-19T06:21:20.182Z,2.03
2023-05-19T06:22:21.862Z,2.60
2023-05-19T06:23:23.829Z,2.28
2023-05-19T06:24:25.674Z,2.47
2023-05-19T06:25:27.071Z,2.10
2023-05-19T06:26:28.711Z,2.63
2023-05-19T06:27:30.600Z,2.40
2023-05-19T06:28:33.837Z,2.90
2023-05-19T06:29:35.486Z,2.30
2023-05-19T06:30:39.077Z,2.60
2023-05-19T06:31:54.683Z,2.00
2023-05-19T06:32:56.757Z,2.20
2023-05-19T06:33:59.173Z,2.27
2023-05-19T06:35:00.829Z,2.67
2023-05-19T06:36:02.277Z,2.15
2023-05-19T06:37:04.207Z,2.50
2023-05-19T06:38:07.430Z,2.03
2023-05-19T06:39:08.930Z,1.70
2023-05-19T06:40:11.135Z,2.05
2023-05-19T06:41:13.857Z,2.05
2023-05-19T06:42:16.215Z,1.77
2023-05-19T06:43:30.713Z,2.10
2023-05-19T06:44:37.129Z,2.10
2023-05-19T06:45:38.587Z,2.20
2023-05-19T06:46:40.048Z,2.13
2023-05-19T06:47:42.493Z,1.90
2023-05-19T06:48:44.255Z,2.38
2023-05-19T06:49:46.082Z,2.17
2023-05-19T06:50:48.352Z,2.05
2023-05-19T06:51:49.752Z,2.05
2023-05-19T06:52:53.973Z,2.05
2023-05-19T06:53:55.558Z,2.20
2023-05-19T06:54:58.070Z,2.38
2023-05-19T06:56:00.355Z,1.95
2023-05-19T06:57:06.402Z,1.73
2023-05-19T06:58:07.973Z,2.35
2023-05-19T06:59:09.668Z,2.30
2023-05-19T07:00:13.428Z,1.90
2023-05-19T07:01:18.149Z,1.85
2023-05-19T07:02:24.710Z,2.13
2023-05-19T07:03:27.223Z,1.92
2023-05-19T07:04:29.336Z,1.80
2023-05-19T07:05:31.033Z,1.85
2023-05-19T07:06:34.912Z,1.98
2023-05-19T07:07:36.511Z,2.58
2023-05-19T07:08:39.552Z,1.67
2023-05-19T07:09:42.544Z,2.22
2023-05-19T07:10:44.006Z,2.10
2023-05-19T07:11:48.022Z,2.00
2023-05-19T07:12:49.695Z,2.30
2023-05-19T07:13:53.089Z,2.53
2023-05-19T07:14:59.784Z,1.98
2023-05-19T07:16:02.207Z,2.28
2023-05-19T07:17:04.012Z,2.42
2023-05-19T07:18:06.097Z,1.88
2023-05-19T07:19:07.688Z,2.35
2023-05-19T07:20:12.289Z,1.92
2023-05-19T07:21:13.997Z,1.88
2023-05-19T07:22:16.403Z,2.00
2023-05-19T07:23:17.870Z,1.85
2023-05-19T07:24:21.461Z,2.15
2023-05-19T07:25:22.845Z,2.22
2023-05-19T07:26:27.448Z,1.90
2023-05-19T07:27:28.891Z,1.73
2023-05-19T07:28:30.291Z,2.08
2023-05-19T07:29:31.658Z,1.80
2023-05-19T07:30:33.457Z,2.33
2023-05-19T07:31:35.624Z,2.10
2023-05-19T07:32:37.037Z,2.10
2023-05-19T07:33:38.635Z,2.20
2023-05-19T07:34:40.579Z,2.05
2023-05-19T07:35:42.156Z,1.70
2023-05-19T07:36:43.613Z,2.00
2023-05-19T07:37:45.210Z,2.17
2023-05-19T07:38:46.968Z,2.10
2023-05-19T07:39:48.448Z,1.95
2023-05-19T07:40:50.028Z,2.28
2023-05-19T07:41:55.499Z,2.20
2023-05-19T07:42:56.962Z,3.00
2023-05-19T07:43:58.356Z,2.15
2023-05-19T07:44:59.821Z,2.33
2023-05-19T07:46:01.416Z,1.85
2023-05-19T07:47:02.827Z,2.00
2023-05-19T07:48:04.392Z,1.90
2023-05-19T07:49:06.545Z,2.08
2023-05-19T07:50:08.010Z,2.47
2023-05-19T07:51:12.686Z,2.00
2023-05-19T07:52:14.266Z,1.40
2023-05-19T07:53:15.912Z,1.73
2023-05-19T07:54:17.479Z,2.08
2023-05-19T07:55:19.254Z,2.10
2023-05-19T07:56:21.483Z,2.20
2023-05-19T07:57:23.099Z,1.92
2023-05-19T07:58:24.449Z,1.83
2023-05-19T07:59:25.835Z,2.03
2023-05-19T08:00:27.491Z,1.98
2023-05-19T08:01:29.703Z,1.60
2023-05-19T08:02:31.415Z,1.80
2023-05-19T08:03:33.758Z,1.80
2023-05-19T08:04:35.504Z,1.75
2023-05-19T08:05:37.063Z,2.10
2023-05-19T08:06:38.680Z,1.95
2023-05-19T08:07:40.015Z,2.00
2023-05-19T08:08:42.258Z,2.25
2023-05-19T08:09:43.604Z,2.03
2023-05-19T08:10:45.326Z,1.75
2023-05-19T08:11:49.925Z,2.00
2023-05-19T08:12:51.335Z,2.17
2023-05-19T08:13:53.087Z,1.80
2023-05-19T08:14:54.498Z,2.20
2023-05-19T08:15:59.675Z,1.95
2023-05-19T08:17:01.238Z,2.13
2023-05-19T08:18:03.249Z,2.17
2023-05-19T08:19:06.762Z,2.08
2023-05-19T08:20:10.186Z,1.80
2023-05-19T08:21:11.805Z,2.00
2023-05-19T08:22:13.259Z,2.17
2023-05-19T08:23:14.584Z,1.83
2023-05-19T08:24:16.062Z,1.60
2023-05-19T08:25:19.831Z,2.00
2023-05-19T08:26:21.532Z,2.10
2023-05-19T08:27:23.076Z,1.90
2023-05-19T08:28:24.489Z,2.08
2023-05-19T08:29:25.905Z,2.10
2023-05-19T08:30:30.432Z,1.88
2023-05-19T08:31:32.439Z,2.33
2023-05-19T08:32:34.233Z,2.00
2023-05-19T08:33:35.729Z,2.08
2023-05-19T08:34:37.267Z,2.00
2023-05-19T08:35:38.629Z,2.00
2023-05-19T08:36:41.029Z,2.13
2023-05-19T08:37:42.829Z,2.00
2023-05-19T08:38:44.248Z,2.10
2023-05-19T08:39:45.778Z,2.00
2023-05-19T08:40:48.396Z,2.08
2023-05-19T08:41:49.929Z,2.13
2023-05-19T08:42:51.272Z,1.92
2023-05-19T08:43:52.691Z,2.05
2023-05-19T08:44:54.000Z,1.67
2023-05-19T08:45:55.524Z,1.90
2023-05-19T08:47:00.233Z,1.80
2023-05-19T08:48:02.613Z,2.10
2023-05-19T08:49:10.227Z,1.80
2023-05-19T08:50:13.083Z,1.95
2023-05-19T08:51:17.970Z,2.15
2023-05-19T08:52:23.378Z,1.63
2023-05-19T08:53:33.854Z,1.90
2023-05-19T08:55:00.863Z,1.85
2023-05-19T08:56:10.468Z,1.90
2023-05-19T08:57:12.332Z,1.65
2023-05-19T08:58:15.612Z,1.92
2023-05-19T08:59:17.220Z,1.70
2023-05-19T09:00:19.822Z,2.10
2023-05-19T09:01:22.203Z,1.77
2023-05-19T09:02:24.067Z,1.80
2023-05-19T09:03:26.486Z,1.80
2023-05-19T09:04:29.898Z,1.63
2023-05-19T09:05:32.181Z,2.03
2023-05-19T09:06:33.849Z,1.52
2023-05-19T09:07:36.156Z,1.70
2023-05-19T09:08:37.516Z,1.92
2023-05-19T09:09:42.997Z,1.98
2023-05-19T09:10:44.327Z,1.80
2023-05-19T09:11:46.416Z,1.95
2023-05-19T09:12:48.781Z,1.55
2023-05-19T09:13:50.207Z,1.73
2023-05-19T09:14:52.336Z,2.03
2023-05-19T09:15:53.686Z,2.00
2023-05-19T09:16:55.160Z,2.10
2023-05-19T09:18:23.091Z,1.80
2023-05-19T09:19:28.305Z,1.58
2023-05-19T09:20:30.659Z,1.58
2023-05-19T09:21:32.365Z,2.10
2023-05-19T09:22:35.779Z,1.67
2023-05-19T09:23:37.171Z,1.80
2023-05-19T09:24:40.317Z,1.70
2023-05-19T09:25:48.110Z,1.50
2023-05-19T09:26:49.492Z,2.10
2023-05-19T09:27:51.238Z,1.73
2023-05-19T09:28:57.926Z,1.88
2023-05-19T09:30:08.532Z,2.20
2023-05-19T09:31:10.824Z,1.70
2023-05-19T09:32:12.384Z,1.70
2023-05-19T09:33:17.221Z,1.58
2023-05-19T09:34:18.917Z,1.55
2023-05-19T09:35:21.530Z,1.55
2023-05-19T09:36:22.930Z,1.80
2023-05-19T09:37:24.583Z,1.92
2023-05-19T09:38:29.454Z,1.65
2023-05-19T09:39:30.900Z,1.50
2023-05-19T09:40:33.490Z,1.50
2023-05-19T09:41:34.897Z,1.60
2023-05-19T09:42:39.285Z,1.70
2023-05-19T09:43:40.619Z,1.50
2023-05-19T09:44:42.282Z,1.40
2023-05-19T09:45:44.154Z,1.98
2023-05-19T09:46:51.644Z,1.67
2023-05-19T09:47:53.854Z,1.88
2023-05-19T09:49:01.259Z,1.83
2023-05-19T09:50:02.931Z,1.73
2023-05-19T09:51:06.225Z,1.60
2023-05-19T09:52:07.740Z,1.92
2023-05-19T09:53:09.140Z,1.77
2023-05-19T09:54:14.812Z,2.20
2023-05-19T09:55:16.267Z,2.15
2023-05-19T09:56:17.744Z,1.40
2023-05-19T09:57:24.884Z,1.60
2023-05-19T09:58:26.609Z,2.20
2023-05-19T09:59:32.029Z,1.73
2023-05-19T10:00:34.098Z,2.00
2023-05-19T10:01:37.288Z,1.50
2023-05-19T10:02:41.480Z,1.90
2023-05-19T10:03:43.736Z,1.80
2023-05-19T10:04:46.259Z,1.30
2023-05-19T10:05:48.552Z,1.95
2023-05-19T10:06:53.529Z,1.80
2023-05-19T10:07:55.208Z,1.80
2023-05-19T10:08:56.968Z,2.00
2023-05-19T10:09:58.875Z,1.60
2023-05-19T10:11:00.675Z,1.60
2023-05-19T10:12:02.353Z,1.80
2023-05-19T10:13:06.591Z,1.50
2023-05-19T10:14:08.303Z,1.58
2023-05-19T10:15:11.430Z,1.85
2023-05-19T10:16:13.516Z,1.58
2023-05-19T10:17:15.415Z,1.60
2023-05-19T10:18:18.002Z,1.40
2023-05-19T10:19:22.973Z,1.85
2023-05-19T10:20:26.468Z,1.75
2023-05-19T10:21:27.841Z,1.45
2023-05-19T10:22:29.193Z,1.88
2023-05-19T10:23:30.784Z,1.90
2023-05-19T10:24:32.194Z,1.92
2023-05-19T10:25:34.672Z,1.80
2023-05-19T10:26:36.452Z,1.63
2023-05-19T10:27:40.487Z,1.67
2023-05-19T10:28:42.890Z,1.60
2023-05-19T10:29:48.039Z,1.85
2023-05-19T10:30:50.832Z,1.63
2023-05-19T10:31:52.895Z,1.95
2023-05-19T10:32:57.149Z,1.70
2023-05-19T10:34:18.945Z,2.00
2023-05-19T10:35:32.512Z,1.67
2023-05-19T10:36:45.630Z,1.77
2023-05-19T10:38:05.484Z,1.70
2023-05-19T10:39:10.498Z,1.52
2023-05-19T10:40:20.967Z,1.55
2023-05-19T10:41:39.080Z,1.80
2023-05-19T10:42:52.787Z,1.55
2023-05-19T10:44:12.610Z,1.77
2023-05-19T10:45:17.583Z,1.90
2023-05-19T10:46:22.972Z,1.70
2023-05-19T10:47:24.946Z,1.70
2023-05-19T10:48:26.445Z,1.92
2023-05-19T10:49:27.844Z,1.92
2023-05-19T10:50:35.371Z,2.10
2023-05-19T10:51:37.127Z,1.83
2023-05-19T10:52:39.709Z,1.60
2023-05-19T10:53:41.799Z,1.65
2023-05-19T10:54:46.586Z,1.90
2023-05-19T10:56:02.578Z,1.25
2023-05-19T10:57:04.036Z,1.90
2023-05-19T10:58:05.403Z,1.67
2023-05-19T10:59:06.937Z,1.80
2023-05-19T11:00:26.951Z,2.05
2023-05-19T11:01:34.684Z,2.10
2023-05-19T11:02:43.151Z,2.45
2023-05-19T11:03:46.094Z,2.05
2023-05-19T11:04:51.369Z,1.75
2023-05-19T11:05:53.664Z,1.80
2023-05-19T11:06:55.193Z,1.77
2023-05-19T11:07:57.454Z,1.83
2023-05-19T11:09:04.928Z,1.83
2023-05-19T11:10:09.527Z,1.92
2023-05-19T11:11:17.244Z,1.58
2023-05-19T11:12:25.469Z,2.05
2023-05-19T11:13:28.444Z,2.15
2023-05-19T11:14:31.951Z,1.70
2023-05-19T11:15:39.443Z,2.00
2023-05-19T11:16:45.786Z,2.05
2023-05-19T11:17:48.668Z,2.42
2023-05-19T11:18:50.646Z,1.70
2023-05-19T11:19:53.981Z,1.95
2023-05-19T11:20:58.249Z,1.70
2023-05-19T11:22:09.535Z,2.30
2023-05-19T11:23:20.547Z,2.22
2023-05-19T11:24:34.799Z,2.10
2023-05-19T11:25:43.861Z,1.70
2023-05-19T11:26:45.635Z,1.80
2023-05-19T11:27:47.104Z,1.85
2023-05-19T11:28:48.829Z,2.03
2023-05-19T11:29:52.059Z,1.70
2023-05-19T11:30:57.950Z,1.67
2023-05-19T11:32:00.680Z,1.80
2023-05-19T11:33:06.167Z,1.63
2023-05-19T11:34:08.323Z,1.60
2023-05-19T11:35:10.211Z,1.75
2023-05-19T11:36:12.482Z,1.50
2023-05-19T11:37:14.210Z,1.50
2023-05-19T11:38:16.865Z,2.00
2023-05-19T11:39:18.738Z,1.70
2023-05-19T11:40:21.601Z,1.70
2023-05-19T11:41:23.302Z,1.90
2023-05-19T11:42:24.675Z,1.83
2023-05-19T11:43:26.294Z,1.63
2023-05-19T11:44:27.700Z,2.08
2023-05-19T11:45:31.612Z,2.00
2023-05-19T11:46:36.748Z,1.58
2023-05-19T11:47:50.775Z,1.80
2023-05-19T11:48:59.809Z,1.65
2023-05-19T11:50:01.773Z,1.88
2023-05-19T11:51:04.031Z,1.70
2023-05-19T11:52:05.959Z,1.88
2023-05-19T11:53:07.906Z,1.77
2023-05-19T11:54:15.737Z,1.63
2023-05-19T11:55:17.879Z,1.60
2023-05-19T11:56:19.511Z,1.63
2023-05-19T11:57:21.087Z,1.83
2023-05-19T11:58:26.338Z,1.67
2023-05-19T11:59:35.847Z,2.03
2023-05-19T12:00:39.428Z,1.50
2023-05-19T12:01:41.563Z,1.95
2023-05-19T12:02:43.223Z,2.10
2023-05-19T12:03:44.964Z,2.00
2023-05-19T12:04:49.996Z,1.95
2023-05-19T12:06:02.278Z,1.80
2023-05-19T12:07:05.970Z,1.80
2023-05-19T12:08:07.589Z,2.30
2023-05-19T12:09:09.261Z,2.00
2023-05-19T12:10:11.346Z,2.20
2023-05-19T12:11:13.377Z,1.85
2023-05-19T12:12:16.789Z,2.20
2023-05-19T12:13:19.239Z,1.70
2023-05-19T12:14:20.696Z,1.65
2023-05-19T12:15:22.465Z,1.65
2023-05-19T12:16:23.935Z,1.80
2023-05-19T12:17:25.418Z,1.95
2023-05-19T12:18:29.282Z,1.85
2023-05-19T12:19:31.372Z,1.70
2023-05-19T12:20:35.773Z,1.60
2023-05-19T12:21:37.923Z,1.98
2023-05-19T12:22:39.327Z,1.70
2023-05-19T12:23:41.809Z,1.80
2023-05-19T12:24:44.068Z,1.60
2023-05-19T12:25:45.701Z,1.88
2023-05-19T12:26:47.571Z,1.92
2023-05-19T12:27:49.702Z,2.03
2023-05-19T12:28:52.594Z,2.20
2023-05-19T12:29:54.790Z,1.85
2023-05-19T12:30:58.429Z,2.05
2023-05-19T12:32:01.051Z,2.10
2023-05-19T12:33:03.420Z,1.70
2023-05-19T12:34:05.172Z,1.80
2023-05-19T12:35:09.194Z,1.83
2023-05-19T12:36:14.005Z,2.50
2023-05-19T12:37:15.425Z,2.05
2023-05-19T12:38:17.318Z,2.35
2023-05-19T12:39:19.566Z,1.90
2023-05-19T12:40:23.020Z,2.83
2023-05-19T12:41:25.029Z,1.92
2023-05-19T12:42:31.316Z,1.80
2023-05-19T12:43:33.526Z,1.65
2023-05-19T12:44:48.411Z,2.20
2023-05-19T12:45:49.864Z,1.70
2023-05-19T12:46:52.035Z,2.55
2023-05-19T12:47:53.989Z,2.10
2023-05-19T12:48:59.480Z,1.88
2023-05-19T12:50:04.900Z,2.42
2023-05-19T12:51:09.707Z,1.85
2023-05-19T12:52:13.545Z,1.77
2023-05-19T12:53:15.171Z,1.98
2023-05-19T12:54:22.824Z,2.03
2023-05-19T12:55:26.118Z,1.60
2023-05-19T12:56:31.125Z,2.03
2023-05-19T12:57:36.921Z,2.22
2023-05-19T12:58:39.644Z,2.20
2023-05-19T12:59:45.570Z,1.90
2023-05-19T13:00:48.604Z,1.90
2023-05-19T13:01:56.208Z,1.73
2023-05-19T13:03:00.262Z,1.90
2023-05-19T13:04:04.019Z,2.10
2023-05-19T13:05:07.875Z,1.98
2023-05-19T13:06:21.058Z,2.10
2023-05-19T13:07:22.580Z,2.17
2023-05-19T13:08:24.701Z,2.15
2023-05-19T13:09:33.004Z,1.98
2023-05-19T13:10:35.498Z,1.80
2023-05-19T13:11:40.647Z,1.98
2023-05-19T13:12:43.409Z,1.45
2023-05-19T13:13:45.258Z,1.80
2023-05-19T13:14:46.943Z,1.90
2023-05-19T13:15:54.478Z,1.65
2023-05-19T13:16:56.130Z,1.48
2023-05-19T13:17:58.184Z,1.90
2023-05-19T13:18:59.872Z,2.10
2023-05-19T13:20:01.434Z,1.90
2023-05-19T13:21:08.758Z,1.60
2023-05-19T13:22:11.277Z,1.67
2023-05-19T13:23:13.768Z,1.73
2023-05-19T13:24:15.364Z,1.58
2023-05-19T13:25:17.361Z,1.50
2023-05-19T13:26:19.083Z,1.70
2023-05-19T13:27:20.682Z,1.80
2023-05-19T13:28:23.592Z,1.80
2023-05-19T13:29:31.514Z,1.73
2023-05-19T13:32:01.380Z,1.67
2023-05-19T13:33:03.369Z,1.75
2023-05-19T13:34:08.076Z,1.90
2023-05-19T13:35:10.247Z,1.70
2023-05-19T13:36:11.923Z,2.20
2023-05-19T13:37:13.854Z,2.00
2023-05-19T13:38:15.489Z,2.05
2023-05-19T13:39:17.138Z,2.13
2023-05-19T13:40:19.110Z,1.88
2023-05-19T13:41:25.248Z,1.83
2023-05-19T13:42:27.096Z,1.92
2023-05-19T13:43:31.602Z,1.35
2023-05-19T13:44:33.265Z,1.88
2023-05-19T13:45:38.030Z,1.75
2023-05-19T13:46:45.608Z,1.52
2023-05-19T13:47:48.326Z,1.90
2023-05-19T13:48:50.035Z,1.40
2023-05-19T13:49:51.992Z,1.63
2023-05-19T13:50:55.545Z,1.40
2023-05-19T13:51:58.210Z,1.50
2023-05-19T13:52:59.850Z,1.67
2023-05-19T13:54:01.248Z,1.60
2023-05-19T13:55:03.579Z,1.75
2023-05-19T13:56:05.321Z,1.50
2023-05-19T13:57:06.825Z,1.70
2023-05-19T13:58:11.019Z,1.40
2023-05-19T13:59:12.912Z,1.95
2023-05-19T14:00:14.615Z,1.40
2023-05-19T14:01:16.272Z,1.80
2023-05-19T14:02:19.099Z,1.60
2023-05-19T14:03:20.748Z,1.83
2023-05-19T14:04:23.730Z,1.83
2023-05-19T14:05:27.537Z,1.85
2023-05-19T14:06:29.588Z,1.88
2023-05-19T14:07:31.228Z,1.88